Port Clyde, Maine
Current Conditions -  °F | °C
As of 2:15 PM on Monday 22 Dec 2014 (Local Time) from KRKD Reporting Station
Overcast Overcast  
Wind Chill: 31°   Ceiling: 1100
Heat Index: 36°   Visibility: 10mi
Dew Point: 32°   Wind: 6mph
Humidity: 87%   Direction: 30°NNE
Pressure: 30.38"   Gusts: NA
Location:  43.93°N, 69.25°W
Report Text: KRKD 221915Z AUTO 03005KT 10SM OVC011 02/00 A3038 RMK AO1
Loading
Personal Weather Stations






























Interactive Weather Map New forecast layout! Learn more

10-Day Weather Forecast

Advertisements
Track Severe Weather on mobile